Historyczne dane pomiarowe

Dodano dane terminowe – wersja testowa.

Dane z okresu 1951-2019

Wersja bazy: 1.34 [2019-03-16, lista zmian], aktualizacja planowana na 2019-04-15

Dane meteo z obszaru Polski uzyskane na podstawie danych udostępnionych przez Instytut Meteorologii i Gospodarki Wodnej – Państwowy Instytut Badawczy.

 

Wybierz Datę:    

       

TemperaturaWilgotnośćWiatrCiśnienieOpadyŚniegCzas trwania zjawisk
 Stacja t tx tn tng RH VA  wxwx mslp ppp RRR   cm mm wxwxwxwxwxwxwx
1998-01-17 4.0 5.5 3.0 0.2 93.0- 6.7 7.3---- 2.4------------
1998-01-18 1.8 4.5 0.6 -5.0 89.0- 6.7 7.0---- 0.0------------
1998-01-19 2.2 4.1 0.8 -1.0 89.3- 8.0 9.7---- 0.0------------
1998-01-20 3.0 4.8 1.6 0.2 90.8- 6.7 4.0---- 0.2------------
1998-01-21 1.0 2.1 0.0 -2.0 96.5- 8.0 5.7---- 9.6------------
1998-01-22 -0.6 0.4 -1.5 -1.5 95.8- 8.0 3.3---- 0.2-- 4---------
1998-01-23 -2.7 -1.0 -4.2 -5.4 91.3- 8.0 1.7---- 0.0-- 4---------
1998-01-24 -3.7 -2.0 -6.3-12.1 92.8- 8.0 1.3---- 0.0-- 4---------
1998-01-25 -4.6 -2.7 -6.1 -5.9 89.8- 0.0 1.7---- 0.0-- 4---------
1998-01-26 -7.4 -4.5 -9.8-13.7 89.0- 5.3 3.0---- 0.0-- 3---------
1998-01-27 -5.7 0.2-10.5-13.9 88.0- 2.7 2.7---- 0.0-- 3---------
1998-01-28 -4.6 -0.7 -8.7-11.9 91.0- 5.3 2.3---- 2.1-- 3---------
1998-01-29 -5.3 -1.7 -8.7-14.9 89.8- 4.0 2.3---- 0.0-- 7---------
1998-01-30 -4.6 0.1-12.5-18.4 88.0- 8.0 3.7---- 0.3-- 7---------
1998-01-31 -5.5 1.5-10.8-10.9 84.3- 3.0 4.0---- 0.4-- 7---------
1998-02-01-13.4 -7.3-17.3-25.9 79.0- 0.7 2.0---- 0.0-- 8---------
1998-02-02 -9.9 -5.3-17.3-23.9 79.5- 6.0 4.0---- 0.0-- 8---------
1998-02-03 -5.2 -1.2 -7.1-11.1 83.0- 4.3 6.0---- 0.4-- 5---------
1998-02-04 -2.8 1.5 -7.3-11.4 83.3- 2.7 2.0---- 0.0-- 6---------
1998-02-05 -1.3 3.8 -4.4-12.9 70.8- 4.7 3.0---- 0.0-- 5---------
1998-02-06 0.6 4.3 -4.4-10.3 94.3- 8.0 2.0---- 0.0-- 4---------
1998-02-07 3.1 6.8 0.5 -1.0 87.0- 7.3 3.0---- 0.0------------
1998-02-08 1.9 3.8 0.3 -3.2 86.3- 8.0 3.0---- 0.0------------
1998-02-09 1.5 3.8 -0.7 -3.0 93.5- 8.0 1.3---- 0.0------------
1998-02-10 4.8 11.2 1.8 -1.0 80.8- 5.3 1.0---- 0.0------------
1998-02-11 4.2 10.5 0.0 -4.0 85.3- 7.3 2.0---- 0.0------------
1998-02-12 9.2 13.4 3.8 0.5 81.3- 8.0 3.0---- 0.0------------
1998-02-13 8.2 11.5 5.0 4.9 95.3- 8.0 5.3---- 12.4------------
1998-02-14 9.0 13.3 4.2 4.4 89.5- 8.0 3.0---- 0.9------------
1998-02-15 11.0 12.6 9.3 7.8 93.5- 8.0 5.0---- 0.2------------
213.8 ms

 

Źródłem pochodzenia danych jest Instytut Meteorologii i Gospodarki Wodnej – Państwowy Instytut Badawczy. Dane Instytutu Meteorologii i Gospodarki Wodnej – Państwowego Instytutu Badawczego zostały przetworzone.

Dane źródłowe można odnaleźć na stronie https://dane.imgw.pl